Log in

NYSE:LVSLas Vegas Sands Institutional Ownership

$46.34
+1.30 (+2.89 %)
(As of 07/3/2020 04:00 PM ET)
Add
Compare
Today's Range
$45.56
Now: $46.34
$46.97
50-Day Range
$43.33
MA: $48.17
$55.64
52-Week Range
$33.30
Now: $46.34
$74.29
Volume4.75 million shs
Average Volume6.95 million shs
Market Capitalization$35.39 billion
P/E Ratio16.85
Dividend YieldN/A
Beta1.59

Institutional Ownership

Institutional Ownership Changes (13F Filings) for Las Vegas Sands (NYSE:LVS)

Institutional Ownership Percentage: 38.10%

Institutional Buying and Selling by Quarter


Las Vegas Sands (NYSE LVS) Institutional Buying and Selling

Reporting DateHedge FundShares HeldMarket Value% of PortfolioQuarterly Change in SharesOwnership in Company
6/19/2020State Street Corp14,950,074$634.93M0.1%+3.8%1.958%
6/15/2020AXA114,153$4.85M0.0%-1.9%0.015%
6/11/2020New Mexico Educational Retirement Board21,250$0.90M0.1%-18.9%0.003%
6/5/2020Skandinaviska Enskilda Banken AB publ40,941$1.74M0.0%+4.6%0.005%
6/2/2020Guggenheim Capital LLC147,912$6.28M0.1%-19.9%0.019%
6/1/2020Formidable Asset Management LLC44,066$1.87M0.7%+2.7%0.006%
5/28/2020State of Tennessee Treasury Department79,453$3.37M0.0%-25.5%0.010%
5/28/2020Tredje AP fonden25,263$1.07M0.1%+19.7%0.003%
5/27/2020Pantheon Investment Group LLC25,192$1.06M1.6%-36.7%0.003%
5/26/2020Morgan Stanley1,213,156$51.52M0.0%-12.7%0.159%
5/23/2020The Manufacturers Life Insurance Company380,075$16.14M0.0%+15.5%0.050%
5/22/2020FDx Advisors Inc.275,931$0.36M0.0%+9,352.9%0.036%
5/21/2020HighTower Advisors LLC44,338$1.87M0.0%+48.1%0.006%
5/20/2020Phoenix Holdings Ltd.32,141$1.33M0.1%N/A0.004%
5/19/2020Fred Alger Management LLC481,764$20.46M0.1%+7.5%0.063%
5/19/2020APG Asset Management N.V.206,120$8.75M0.0%N/A0.027%
5/18/2020Melvin Capital Management LP7,442,247$316.07M2.5%+11.0%0.974%
5/18/2020Twinbeech Capital LP54,518$2.32M0.9%N/A0.007%
5/18/2020Waddell & Reed Financial Inc.679,264$28.85M0.1%-18.8%0.089%
5/18/2020Mercer Global Advisors Inc. ADV18,988$0.81M0.0%+111.5%0.002%
5/18/2020Colony Group LLC12,940$0.55M0.0%-14.2%0.002%
5/18/2020Advisor Group Holdings Inc.69,878$2.89M0.0%N/A0.009%
5/15/2020Capital Research Global Investors8,704,693$369.69M0.1%-60.6%1.140%
5/15/2020Caxton Associates LP5,857$0.25M0.0%N/A0.001%
5/15/2020AQR Capital Management LLC201,986$8.58M0.0%-64.2%0.026%
5/15/2020Capital World Investors10,034,931$426.18M0.1%+4.2%1.314%
5/15/2020Engineers Gate Manager LP99,830$4.24M0.3%N/A0.013%
5/15/2020Capital International Investors20,249,757$860.01M0.4%+142.9%2.651%
5/15/2020Capital Bank & Trust Co1,148,245$48.77M0.8%-26.4%0.150%
5/15/2020Tower Research Capital LLC TRC 800$34K0.0%+294.1%0.000%
5/15/2020AXA114,153$4.85M0.0%-1.9%0.015%
5/15/2020Invesco Ltd.3,585,142$152.26M0.1%-15.2%0.469%
5/15/2020Barings LLC16,500$0.70M0.0%-6.8%0.002%
5/15/2020Weiss Multi Strategy Advisers LLC190,318$8.08M0.3%+1,053.4%0.025%
5/15/2020Duquesne Family Office LLC176,168$7.48M0.3%N/A0.023%
5/15/2020Tudor Investment Corp Et Al10,815$0.46M0.0%N/A0.001%
5/15/2020FinTrust Capital Advisors LLC2,200$93K0.0%-40.5%0.000%
5/15/2020Schroder Investment Management Group304,197$12.38M0.0%-12.2%0.040%
5/15/2020Morgan Stanley1,213,156$51.52M0.0%-12.7%0.159%
5/15/2020Procyon Private Wealth Partners LLC1,528$65K0.0%-15.9%0.000%
5/15/2020CIBC World Markets Inc.11,212$0.48M0.0%-54.1%0.001%
5/15/2020APG Asset Management N.V.206,120$8.75M0.0%N/A0.027%
5/15/2020United Capital Financial Advisers LLC161,398$6.86M0.1%-14.0%0.021%
5/15/2020Parametrica Management Ltd5,007$0.21M0.2%N/A0.001%
5/15/2020Enterprise Financial Services Corp606$26K0.0%-38.4%0.000%
5/15/2020Two Sigma Advisers LP733,800$31.16M0.1%-33.3%0.096%
5/15/2020Atom Investors LP7,523$0.32M0.0%N/A0.001%
5/15/2020Vista Investment Management14,900$0.63M0.6%+5.0%0.002%
5/15/2020Stonebridge Capital Advisors LLC17,920$0.76M0.2%-3.2%0.002%
5/15/2020Cinctive Capital Management LP31,665$1.35M0.3%-59.1%0.004%
5/14/2020Caisse DE Depot ET Placement DU Quebec98,645$4.19M0.0%-3.4%0.013%
5/14/2020Gabelli Funds LLC61,100$2.60M0.0%-47.8%0.008%
5/14/2020Wells Fargo & Company MN4,466,119$189.68M0.1%+2.3%0.585%
5/14/2020Mackenzie Financial Corp8,197$0.35M0.0%+14.5%0.001%
5/14/2020Gamco Investors INC. ET AL217,290$9.23M0.1%-27.0%0.028%
5/14/2020Geode Capital Management LLC4,822,423$204.53M0.1%-0.5%0.631%
5/14/2020Janus Henderson Group PLC1,493,709$63.43M0.0%-42.9%0.196%
5/14/2020Wellington Management Group LLP4,269,162$181.31M0.0%+185.4%0.559%
5/14/2020Nomura Asset Management Co. Ltd.72,227$3.07M0.0%-18.5%0.009%
5/14/2020River & Mercantile Asset Management LLP1,116,760$47.40M4.1%+62.9%0.146%
5/14/2020Legal & General Group Plc2,218,574$94.50M0.1%+1.0%0.290%
5/14/2020Aviva PLC519,875$22.08M0.2%+24.2%0.068%
5/14/2020APG Asset Management N.V.125,558$6.82M0.0%N/A0.016%
5/14/2020Deutsche Bank AG997,223$42.35M0.0%-2.9%0.131%
5/14/2020Baird Financial Group Inc.33,420$1.42M0.0%+9.7%0.004%
5/14/2020Alliancebernstein L.P.3,227,867$137.09M0.1%-0.9%0.423%
5/14/2020M&T Bank Corp15,319$0.65M0.0%-21.0%0.002%
5/14/2020Lord Abbett & CO. LLC935,000$39.71M0.2%N/A0.122%
5/14/2020MML Investors Services LLC10,127$0.43M0.0%+7.3%0.001%
5/14/2020Banque Cantonale Vaudoise10,503$0.45M0.0%-6.3%0.001%
5/14/2020Public Sector Pension Investment Board33,760$1.43M0.0%-81.6%0.004%
5/14/2020Asset Management One Co. Ltd.239,817$10.19M0.1%-1.7%0.031%
5/14/2020Nuveen Asset Management LLC5,704,313$242.26M0.1%+86.8%0.747%
5/14/2020Korea Investment CORP146,800$6.24M0.0%-13.6%0.019%
5/14/2020Primecap Management Co. CA777,700$33.03M0.0%-6.5%0.102%
5/14/2020Westpac Banking Corp111,865$4.75M0.1%+5.3%0.015%
5/13/2020Canada Pension Plan Investment Board46,676$1.98M0.0%-15.3%0.006%
5/13/2020FDx Advisors Inc.275,931$0.36M0.0%+9,352.9%0.036%
5/13/2020Parametric Portfolio Associates LLC1,080,227$45.88M0.0%+27.8%0.141%
5/13/2020Treasurer of the State of North Carolina167,705$7.12M0.1%+6.3%0.022%
5/13/2020Viking Global Investors LP3,094,371$131.42M0.7%N/A0.405%
5/13/2020Castleark Management LLC203,180$8.63M0.5%N/A0.027%
5/13/2020Horizon Kinetics Asset Management LLC92,466$3.93M0.2%-9.1%0.012%
5/13/2020Federated Hermes Inc.2,040,298$86.65M0.3%+31.9%0.267%
5/13/2020Pinnacle Associates Ltd.526,086$22.34M0.7%-11.8%0.069%
5/13/2020Pictet Asset Management Ltd.158,523$6.73M0.0%+1.8%0.021%
5/13/2020Toronto Dominion Bank191,666$8.15M0.0%-22.4%0.025%
5/13/2020Franklin Resources Inc.1,545,658$65.64M0.0%+63.9%0.202%
5/13/2020Columbus Hill Capital Management L.P.616,515$26.18M5.0%+52.0%0.081%
5/13/2020Skandinaviska Enskilda Banken AB publ40,941$1.74M0.0%+4.6%0.005%
5/13/2020Channing Capital Management LLC93,307$3.96M0.3%-2.5%0.012%
5/13/2020Mitsubishi UFJ Trust & Banking Corp395,585$16.80M0.0%+4.5%0.052%
5/13/2020US Bancorp DE70,847$3.01M0.0%-24.6%0.009%
5/12/2020OPSEU Pension Plan Trust Fund12,063$0.48M0.2%N/A0.002%
5/12/2020Private Advisor Group LLC57,266$2.43M0.0%-6.7%0.007%
5/12/2020Van ECK Associates Corp61,530$2.61M0.0%+32.8%0.008%
5/12/2020Vident Investment Advisory LLC15,523$0.66M0.0%N/A0.002%
5/12/2020Flagship Harbor Advisors LLC676$29K0.0%-55.6%0.000%
5/12/2020Alerus Financial NA60,654$2.58M0.4%+12.8%0.008%
5/12/2020Sowell Financial Services LLC7,187$0.31M0.0%+31,147.8%0.001%
(Data available from 1/1/2016 forward)
This page was last updated on 7/4/2020 by MarketBeat.com Staff

30 Days of MarketBeat All Access for $1.00

Sign up for MarketBeat All Access to gain access to MarketBeat's full suite of research tools:

  • Best-in-Class Portfolio Monitoring

    View the latest news, buy/sell ratings, SEC filings and insider transactions for your stocks. Compare your portfolio performance to leading indices and get personalized stock ideas based on your portfolio.

  • Stock Ideas and Recommendations

    Get daily stock ideas top-performing Wall Street analysts. Get short term trading ideas from the MarketBeat Idea Engine. View which stocks are hot on social media with MarketBeat's trending stocks report.

  • Advanced Stock Screeners and Research Tools

    Identify stocks that meet your criteria using seven unique stock screeners. See what's happening in the market right now with MarketBeat's real-time news feed. Export data to Excel for your own analysis.

Start Your Risk-Free Trial Subscription Here

Enter your email address below to receive a concise daily summary of analysts' upgrades, downgrades and new coverage with MarketBeat.com's FREE daily email newsletter.